createdAt,value
2022-09-14T00:05:30.571Z,100639.31
2022-09-14T00:15:52.120Z,100628.16
2022-09-14T00:26:18.249Z,100620.84
2022-09-14T00:36:41.407Z,100612.78
2022-09-14T00:47:02.931Z,100610.09
2022-09-14T00:57:25.781Z,100600.47
2022-09-14T01:08:07.150Z,100614.69
2022-09-14T01:18:32.024Z,100593.38
2022-09-14T01:28:56.480Z,100588.69
2022-09-14T01:39:20.082Z,100588.38
2022-09-14T01:49:47.491Z,100588.34
2022-09-14T02:00:10.907Z,100582.63
2022-09-14T02:10:32.696Z,100565.16
2022-09-14T02:20:56.908Z,100568.56
2022-09-14T02:31:24.575Z,100558.91
2022-09-14T02:41:51.914Z,100545.41
2022-09-14T02:52:22.224Z,100532.72
2022-09-14T03:02:43.637Z,100543.09
2022-09-14T03:13:05.172Z,100516.84
2022-09-14T03:23:26.565Z,100513.34
2022-09-14T03:33:52.181Z,100517.34
2022-09-14T03:44:13.513Z,100512.94
2022-09-14T03:54:34.858Z,100521.09
2022-09-14T04:04:56.470Z,100515.56
2022-09-14T04:15:18.342Z,100497.94
2022-09-14T04:25:39.683Z,100486.44
2022-09-14T04:36:08.486Z,100485.16
2022-09-14T04:46:31.238Z,100489.25
2022-09-14T04:56:52.748Z,100480.03
2022-09-14T05:07:14.125Z,100473.63
2022-09-14T05:17:35.475Z,100480.81
2022-09-14T05:27:56.853Z,100487.59
2022-09-14T05:38:18.203Z,100478.25
2022-09-14T05:48:40.226Z,100475.31
2022-09-14T05:59:01.590Z,100470.34
2022-09-14T06:09:22.951Z,100476.28
2022-09-14T06:19:44.295Z,100463.94
2022-09-14T06:30:06.001Z,100467.72
2022-09-14T06:40:28.247Z,100469.94
2022-09-14T06:50:49.904Z,100472.47
2022-09-14T07:01:13.624Z,100474.72
2022-09-14T07:11:35.360Z,100488.69
2022-09-14T07:21:57.093Z,100483.22
2022-09-14T07:32:18.537Z,100483.56
2022-09-14T07:42:40.119Z,100469.56
2022-09-14T07:53:01.483Z,100472.38
2022-09-14T08:03:22.859Z,100477.63
2022-09-14T08:13:45.509Z,100471.94
2022-09-14T08:24:06.906Z,100458.50
2022-09-14T08:34:28.357Z,100455.63
2022-09-14T08:44:53.645Z,100447.66
2022-09-14T08:55:35.636Z,100425.81
2022-09-14T09:06:15.131Z,100434.88
2022-09-14T09:16:37.563Z,100441.91
2022-09-14T09:26:59.004Z,100427.34
2022-09-14T09:37:23.950Z,100439.53
2022-09-14T09:47:45.406Z,100428.97
2022-09-14T09:58:25.756Z,100424.41
2022-09-14T10:08:47.586Z,100422.88
2022-09-14T10:19:15.990Z,100411.69
2022-09-14T10:29:42.253Z,100395.19
2022-09-14T10:40:06.924Z,100413.97
2022-09-14T10:50:42.961Z,100411.25
2022-09-14T11:01:13.563Z,100388.75
2022-09-14T11:11:38.163Z,100374.56
2022-09-14T11:22:22.917Z,100388.47
2022-09-14T11:32:51.764Z,100379.19
2022-09-14T11:43:19.308Z,100375.53
2022-09-14T11:53:41.907Z,100377.34
2022-09-14T12:04:14.290Z,100377.47
2022-09-14T12:14:36.611Z,100371.88
2022-09-14T12:25:22.702Z,100354.41
2022-09-14T12:35:46.091Z,100354.22
2022-09-14T12:46:10.629Z,100354.09
2022-09-14T12:56:38.443Z,100347.47
2022-09-14T13:07:01.520Z,100335.84
2022-09-14T13:17:24.155Z,100335.84
2022-09-14T13:27:48.181Z,100329.59
2022-09-14T13:38:39.133Z,100321.25
2022-09-14T13:49:00.690Z,100313.97
2022-09-14T13:59:22.673Z,100306.38
2022-09-14T14:09:50.715Z,100303.38
2022-09-14T14:20:24.433Z,100279.25
2022-09-14T14:30:46.077Z,100274.72
2022-09-14T14:41:08.574Z,100256.69
2022-09-14T14:51:30.109Z,100251.72
2022-09-14T15:01:52.723Z,100252.41
2022-09-14T15:12:14.080Z,100253.31
2022-09-14T15:22:36.404Z,100253.97
2022-09-14T15:32:57.825Z,100240.41
2022-09-14T15:43:19.148Z,100236.03
2022-09-14T15:53:40.551Z,100236.03
2022-09-14T16:04:10.879Z,100232.00
2022-09-14T16:14:33.178Z,100228.38
2022-09-14T16:24:54.525Z,100220.84
2022-09-14T16:35:16.091Z,100236.63
2022-09-14T16:45:37.683Z,100244.22
2022-09-14T16:56:02.200Z,100246.88
2022-09-14T17:06:25.443Z,100248.38
2022-09-14T17:16:46.961Z,100240.25
2022-09-14T17:27:08.554Z,100246.38
2022-09-14T17:37:29.924Z,100257.72
2022-09-14T17:47:51.268Z,100245.03
2022-09-14T17:58:15.387Z,100250.94
2022-09-14T18:08:40.520Z,100259.16
2022-09-14T18:19:02.419Z,100268.16
2022-09-14T18:29:24.021Z,100259.94
2022-09-14T18:39:45.579Z,100274.22
2022-09-14T18:50:07.794Z,100269.75
2022-09-14T19:00:29.201Z,100275.72
2022-09-14T19:10:50.724Z,100275.72
2022-09-14T19:21:25.997Z,100283.06
2022-09-14T19:31:51.503Z,100291.16
2022-09-14T19:42:13.044Z,100287.78
2022-09-14T19:52:34.873Z,100284.28
2022-09-14T20:02:56.544Z,100284.63
2022-09-14T20:13:18.045Z,100286.97
2022-09-14T20:23:52.431Z,100282.13
2022-09-14T20:34:20.764Z,100269.22
2022-09-14T20:44:42.279Z,100266.25
2022-09-14T20:55:03.986Z,100264.16
2022-09-14T21:05:25.602Z,100268.19
2022-09-14T21:15:47.129Z,100267.91
2022-09-14T21:26:10.394Z,100265.13
2022-09-14T21:36:36.015Z,100274.81
2022-09-14T21:46:57.970Z,100274.34
2022-09-14T21:57:19.404Z,100266.63
2022-09-14T22:07:45.889Z,100257.47
2022-09-14T22:18:37.067Z,100261.47
2022-09-14T22:39:54.254Z,100259.88
2022-09-14T23:02:05.814Z,100245.22
2022-09-14T23:12:36.178Z,100253.38
2022-09-14T23:23:57.344Z,100254.22
2022-09-14T23:35:15.626Z,100250.94
2022-09-14T23:46:36.351Z,100247.06
2022-09-14T23:57:28.273Z,100237.69
